Time;durP1;ratioP1;P1;durP2;ratioP2;P2;SDS_P1;SDS_P2;PMS_P1;PMS_P2;Temp;Humidity;BMP_temperature;BMP_pressure;BME280_temperature;BME280_humidity;BME280_pressure;Samples;Min_cycle;Max_cycle;Signal;HPM_P1;HPM_P2
2022/10/31 00:01:29;;;;;;;8.93;6.40;;;14.60;77.40;;;;;;5065236;28;20052;-77
2022/10/31 00:03:55;;;;;;;10.55;7.40;;;14.60;77.50;;;;;;5055050;28;20044;-77
2022/10/31 00:06:21;;;;;;;9.52;6.88;;;14.50;77.50;;;;;;5054760;28;20060;-77
2022/10/31 00:08:51;;;;;;;10.02;7.10;;;14.50;77.60;;;;;;5072108;28;20384;-77
2022/10/31 00:11:17;;;;;;;10.45;7.45;;;14.50;77.60;;;;;;5071615;28;20496;-77
2022/10/31 00:13:43;;;;;;;9.65;7.18;;;14.50;77.60;;;;;;5071634;28;20036;-77
2022/10/31 00:16:22;;;;;;;9.60;7.40;;;14.40;77.60;;;;;;5054510;28;20048;-77
2022/10/31 00:18:52;;;;;;;8.15;6.88;;;14.40;77.60;;;;;;5071487;28;20037;-77
2022/10/31 00:21:19;;;;;;;11.00;7.55;;;14.30;77.60;;;;;;5067810;28;20132;-76
2022/10/31 00:23:45;;;;;;;11.10;7.85;;;14.40;77.70;;;;;;5071957;28;20432;-76
2022/10/31 00:26:10;;;;;;;10.48;7.22;;;14.30;77.70;;;;;;5061614;28;20079;-77
2022/10/31 00:28:36;;;;;;;10.23;7.85;;;14.30;77.70;;;;;;5075811;28;20471;-76
2022/10/31 00:31:04;;;;;;;10.00;7.13;;;14.20;77.60;;;;;;5074986;28;20036;-76
2022/10/31 00:33:30;;;;;;;10.30;6.65;;;14.20;77.60;;;;;;5075505;28;20024;-76
2022/10/31 00:35:56;;;;;;;9.93;7.60;;;14.20;77.70;;;;;;5069157;28;20412;-76
2022/10/31 00:38:22;;;;;;;10.52;7.22;;;14.20;77.70;;;;;;5042466;28;20090;-76
2022/10/31 00:40:47;;;;;;;10.80;7.00;;;14.20;77.80;;;;;;5075667;28;20048;-76
2022/10/31 00:43:13;;;;;;;9.40;7.00;;;14.10;77.80;;;;;;5058369;28;21898;-76
2022/10/31 00:45:39;;;;;;;10.18;7.53;;;14.10;77.90;;;;;;5074619;28;20032;-76
2022/10/31 00:48:05;;;;;;;10.35;7.65;;;14.10;78.00;;;;;;5055274;28;20451;-76
2022/10/31 00:50:30;;;;;;;11.27;8.43;;;14.10;78.00;;;;;;5055307;28;20696;-77
2022/10/31 00:52:57;;;;;;;9.90;6.85;;;14.10;78.40;;;;;;5034926;28;20037;-77
2022/10/31 00:55:23;;;;;;;10.85;7.47;;;14.00;78.00;;;;;;5055829;28;20434;-76
2022/10/31 00:57:49;;;;;;;10.20;7.45;;;14.00;78.00;;;;;;5055443;28;20048;-76
2022/10/31 01:00:15;;;;;;;11.73;7.32;;;14.00;78.10;;;;;;5070822;28;20081;-76
2022/10/31 01:02:40;;;;;;;8.23;6.43;;;14.00;78.10;;;;;;5054233;28;20488;-73
2022/10/31 01:05:07;;;;;;;9.82;7.25;;;14.00;78.20;;;;;;5065880;28;20049;-73
2022/10/31 01:07:36;;;;;;;11.40;6.88;;;13.90;78.20;;;;;;5074040;28;20621;-73
2022/10/31 01:10:02;;;;;;;9.48;7.13;;;13.90;78.30;;;;;;5054466;28;20040;-73
2022/10/31 01:12:27;;;;;;;11.93;8.18;;;13.90;78.30;;;;;;5066299;28;20107;-73
2022/10/31 01:14:53;;;;;;;9.52;7.15;;;13.90;78.40;;;;;;5064388;28;20045;-73
2022/10/31 01:17:18;;;;;;;11.35;8.25;;;13.90;78.40;;;;;;5070434;28;20059;-73
2022/10/31 01:19:45;;;;;;;9.90;8.27;;;13.90;78.40;;;;;;5066180;28;20041;-73
2022/10/31 01:22:10;;;;;;;13.98;10.30;;;13.80;78.40;;;;;;5046228;28;20598;-73
2022/10/31 01:24:36;;;;;;;10.73;7.60;;;13.80;78.40;;;;;;5057580;28;20048;-74
2022/10/31 01:27:02;;;;;;;11.43;7.68;;;13.80;78.80;;;;;;5040954;28;20036;-73
2022/10/31 01:29:28;;;;;;;10.05;7.05;;;13.80;78.40;;;;;;5057030;28;20463;-73
2022/10/31 01:31:53;;;;;;;7.85;6.93;;;13.80;78.50;;;;;;5055840;28;20039;-73
2022/10/31 01:34:19;;;;;;;9.65;7.70;;;13.80;78.60;;;;;;5061096;28;20043;-74
2022/10/31 01:36:47;;;;;;;9.77;7.53;;;13.70;78.50;;;;;;5056800;28;20072;-74
2022/10/31 01:39:15;;;;;;;11.35;8.65;;;13.70;78.60;;;;;;5073764;28;20093;-74
2022/10/31 01:41:47;;;;;;;9.00;7.50;;;13.70;78.60;;;;;;5056291;28;20033;-73
2022/10/31 01:44:15;;;;;;;9.68;7.63;;;13.70;79.10;;;;;;5049209;28;20076;-73
2022/10/31 01:47:05;;;;;;;11.57;9.07;;;13.70;78.70;;;;;;5073783;28;20039;-74
2022/10/31 01:49:59;;;;;;;9.55;6.60;;;13.60;78.70;;;;;;5073564;28;20040;-74
2022/10/31 01:52:26;;;;;;;11.17;7.23;;;13.70;78.70;;;;;;5065587;28;20048;-74
2022/10/31 01:54:57;;;;;;;10.98;7.78;;;13.60;78.70;;;;;;5060313;28;20496;-74
2022/10/31 01:57:24;;;;;;;9.23;7.05;;;13.60;78.70;;;;;;5067789;28;20041;-74
2022/10/31 01:59:55;;;;;;;9.07;6.72;;;13.60;78.70;;;;;;5073808;28;20063;-74
2022/10/31 02:02:20;;;;;;;10.35;7.20;;;13.60;78.80;;;;;;5069146;28;20062;-74
2022/10/31 02:04:47;;;;;;;13.10;9.07;;;13.60;78.80;;;;;;5074432;28;20056;-74
2022/10/31 02:07:21;;;;;;;11.30;9.07;;;13.60;78.80;;;;;;5045189;28;20072;-74
2022/10/31 02:09:49;;;;;;;13.68;9.07;;;13.50;78.60;;;;;;5076579;28;20064;-73
2022/10/31 02:12:16;;;;;;;14.02;10.38;;;13.50;78.50;;;;;;5076293;28;20058;-74
2022/10/31 02:14:42;;;;;;;11.13;8.63;;;13.50;78.30;;;;;;5075908;28;20032;-74
2022/10/31 02:17:08;;;;;;;9.75;7.47;;;13.50;78.10;;;;;;5076354;28;20047;-74
2022/10/31 02:19:51;;;;;;;13.23;9.05;;;13.40;78.00;;;;;;5075866;28;20064;-74
2022/10/31 02:22:48;;;;;;;14.90;8.70;;;13.40;77.90;;;;;;5070264;28;20100;-74
2022/10/31 02:25:29;;;;;;;10.68;8.07;;;13.40;77.90;;;;;;5059365;28;20529;-73
2022/10/31 02:28:23;;;;;;;12.32;8.23;;;13.30;77.90;;;;;;5058793;28;20042;-74
2022/10/31 02:31:29;;;;;;;9.70;7.88;;;13.30;77.70;;;;;;5076257;28;20044;-74
2022/10/31 02:34:27;;;;;;;11.02;8.23;;;13.30;77.60;;;;;;5059102;28;20110;-73
2022/10/31 02:37:00;;;;;;;10.45;7.63;;;13.20;77.70;;;;;;5018091;28;20049;-74
2022/10/31 02:39:56;;;;;;;10.23;8.07;;;13.20;77.90;;;;;;5052468;28;20036;-74
2022/10/31 02:42:37;;;;;;;9.23;6.88;;;13.10;77.70;;;;;;5091825;28;20046;-74
2022/10/31 02:45:14;;;;;;;12.27;8.65;;;13.10;77.90;;;;;;5062134;28;20096;-74
2022/10/31 02:47:41;;;;;;;10.80;8.93;;;13.10;78.40;;;;;;5076376;28;20430;-73
2022/10/31 02:50:15;;;;;;;12.10;9.20;;;13.10;77.90;;;;;;5075038;28;20043;-77
2022/10/31 02:52:40;;;;;;;11.82;7.32;;;13.10;77.70;;;;;;5059385;28;20028;-77
2022/10/31 02:55:31;;;;;;;8.68;6.65;;;13.00;77.50;;;;;;5059803;28;20050;-77
2022/10/31 02:58:01;;;;;;;10.63;7.00;;;13.00;77.70;;;;;;5072632;28;20045;-77
2022/10/31 03:00:29;;;;;;;7.75;6.28;;;13.00;78.00;;;;;;5073679;28;20491;-77
2022/10/31 03:03:36;;;;;;;8.32;6.85;;;13.00;78.20;;;;;;5059081;28;20080;-77
2022/10/31 03:06:30;;;;;;;9.18;6.80;;;12.90;78.20;;;;;;5062705;28;20051;-77
2022/10/31 03:09:22;;;;;;;10.93;6.70;;;12.90;78.50;;;;;;5056116;28;20044;-77
2022/10/31 03:11:54;;;;;;;11.98;8.35;;;12.90;78.50;;;;;;5056010;28;20514;-77
2022/10/31 03:14:40;;;;;;;8.57;7.00;;;12.90;78.60;;;;;;5075479;28;20157;-77
2022/10/31 03:17:13;;;;;;;9.60;6.53;;;12.90;78.60;;;;;;5075650;28;20040;-77
2022/10/31 03:19:45;;;;;;;8.70;5.80;;;12.90;78.60;;;;;;5065278;28;20043;-77
2022/10/31 03:22:23;;;;;;;8.55;6.18;;;12.90;78.50;;;;;;5075695;28;20036;-77
2022/10/31 03:24:51;;;;;;;8.60;6.10;;;12.90;78.30;;;;;;5075234;28;20042;-77
2022/10/31 03:27:21;;;;;;;9.05;6.82;;;12.80;78.30;;;;;;5039590;28;20040;-76
2022/10/31 03:29:50;;;;;;;8.77;6.47;;;12.80;78.30;;;;;;5072509;28;20438;-76
2022/10/31 03:32:22;;;;;;;7.93;6.47;;;12.80;78.40;;;;;;5041557;28;20039;-76
2022/10/31 03:34:49;;;;;;;9.30;6.88;;;12.80;78.40;;;;;;5074729;28;20058;-76
2022/10/31 03:37:18;;;;;;;10.00;6.45;;;12.80;78.30;;;;;;5092745;28;20050;-77
2022/10/31 03:39:46;;;;;;;7.80;6.00;;;12.80;78.30;;;;;;5084958;28;20115;-76
2022/10/31 03:42:16;;;;;;;10.13;7.65;;;12.70;78.50;;;;;;5075441;28;20036;-77
2022/10/31 03:44:49;;;;;;;9.75;6.63;;;12.70;78.20;;;;;;5086505;28;20040;-77
2022/10/31 03:47:16;;;;;;;8.10;6.60;;;12.70;78.20;;;;;;5058012;28;20036;-77
2022/10/31 03:49:41;;;;;;;8.88;7.10;;;12.70;78.30;;;;;;5069167;28;20039;-77
2022/10/31 03:52:24;;;;;;;8.30;6.50;;;12.70;78.30;;;;;;5071860;28;20052;-77
2022/10/31 03:54:57;;;;;;;8.43;6.32;;;12.60;78.30;;;;;;5067412;28;20074;-77
2022/10/31 03:57:29;;;;;;;7.55;6.55;;;12.70;78.90;;;;;;5075167;28;20043;-77
2022/10/31 04:00:07;;;;;;;10.05;6.32;;;12.60;78.40;;;;;;5075186;28;20047;-77
2022/10/31 04:02:37;;;;;;;9.02;6.45;;;12.60;78.30;;;;;;5075234;28;20047;-77
2022/10/31 04:05:05;;;;;;;8.35;6.10;;;12.60;78.20;;;;;;5071493;28;20052;-77
2022/10/31 04:07:37;;;;;;;8.75;7.00;;;12.60;78.20;;;;;;5072004;28;20410;-76
2022/10/31 04:10:07;;;;;;;8.15;6.95;;;12.60;78.20;;;;;;5071551;28;20040;-76
2022/10/31 04:12:35;;;;;;;8.25;6.05;;;12.50;78.10;;;;;;5060032;28;20041;-76
2022/10/31 04:15:03;;;;;;;7.28;5.95;;;12.50;78.20;;;;;;5051795;28;20484;-76
2022/10/31 04:17:32;;;;;;;6.78;6.07;;;12.50;78.20;;;;;;5051737;28;20040;-77
2022/10/31 04:20:03;;;;;;;9.88;6.50;;;12.50;78.30;;;;;;5070267;28;20119;-77
2022/10/31 04:22:28;;;;;;;7.78;5.70;;;12.50;78.40;;;;;;5051452;28;20041;-77
2022/10/31 04:24:54;;;;;;;7.82;5.15;;;12.50;78.40;;;;;;5065588;28;20037;-77
2022/10/31 04:27:20;;;;;;;6.18;4.95;;;12.50;78.30;;;;;;5054871;28;20585;-77
2022/10/31 04:29:45;;;;;;;7.30;5.35;;;12.40;78.10;;;;;;5071736;28;20055;-77
2022/10/31 04:32:11;;;;;;;7.28;5.10;;;12.40;78.10;;;;;;5071642;28;20037;-77
2022/10/31 04:34:37;;;;;;;9.65;6.03;;;12.40;78.00;;;;;;5054451;28;20043;-77
2022/10/31 04:37:02;;;;;;;8.23;6.30;;;12.40;78.00;;;;;;5051458;28;20037;-77
2022/10/31 04:39:28;;;;;;;7.05;5.60;;;12.40;77.90;;;;;;5053995;28;20037;-77
2022/10/31 04:41:54;;;;;;;7.68;5.57;;;12.40;77.80;;;;;;5071287;28;20079;-77
2022/10/31 04:44:19;;;;;;;7.35;5.65;;;12.30;77.60;;;;;;5071072;28;20205;-77
2022/10/31 04:46:45;;;;;;;6.88;5.55;;;12.30;77.60;;;;;;5071177;28;20047;-74
2022/10/31 04:49:11;;;;;;;6.68;5.18;;;12.30;77.60;;;;;;5051000;28;20476;-74
2022/10/31 04:51:36;;;;;;;9.13;5.95;;;12.20;77.60;;;;;;5064137;28;20028;-74
2022/10/31 04:54:02;;;;;;;5.85;4.85;;;12.30;77.70;;;;;;5053850;28;20032;-74
2022/10/31 04:56:28;;;;;;;6.15;5.40;;;12.20;77.80;;;;;;5037160;28;20510;-74
2022/10/31 04:58:53;;;;;;;6.03;4.75;;;12.20;77.80;;;;;;5070742;28;20043;-74
2022/10/31 05:01:19;;;;;;;7.43;4.97;;;12.20;77.70;;;;;;5053934;28;20037;-74
2022/10/31 05:03:45;;;;;;;6.50;4.95;;;12.20;77.60;;;;;;5050435;28;20080;-74
2022/10/31 05:06:10;;;;;;;7.13;5.45;;;12.20;78.10;;;;;;5034093;28;20127;-74
2022/10/31 05:08:36;;;;;;;11.77;5.97;;;12.10;77.70;;;;;;5067739;28;20041;-74
2022/10/31 05:11:03;;;;;;;7.80;6.50;;;12.10;77.70;;;;;;5051446;28;20491;-74
2022/10/31 05:13:29;;;;;;;7.50;5.22;;;12.10;77.80;;;;;;5073080;28;20482;-74
2022/10/31 05:15:54;;;;;;;5.78;4.68;;;12.10;77.80;;;;;;5074285;28;20040;-74
2022/10/31 05:18:20;;;;;;;7.22;5.68;;;12.10;77.80;;;;;;5074350;28;20491;-74
2022/10/31 05:20:46;;;;;;;6.22;5.20;;;12.10;77.90;;;;;;5073728;28;20051;-74
2022/10/31 05:23:11;;;;;;;6.47;4.60;;;12.10;77.80;;;;;;5074074;28;20049;-74
2022/10/31 05:25:37;;;;;;;5.75;4.05;;;12.00;77.50;;;;;;5073694;28;20480;-74
2022/10/31 05:28:03;;;;;;;5.63;4.22;;;12.00;77.20;;;;;;5054287;28;20125;-74
2022/10/31 05:30:31;;;;;;;4.68;4.03;;;12.00;76.90;;;;;;5070590;28;20032;-73
2022/10/31 05:32:57;;;;;;;6.57;4.50;;;11.90;76.90;;;;;;5041697;28;20119;-73
2022/10/31 05:35:29;;;;;;;6.38;4.30;;;11.90;76.10;;;;;;5074042;28;20129;-76
2022/10/31 05:37:54;;;;;;;5.78;3.85;;;11.80;75.90;;;;;;5070150;28;20040;-76
2022/10/31 05:40:21;;;;;;;5.97;4.25;;;11.80;75.90;;;;;;5067968;28;20041;-73
2022/10/31 05:42:50;;;;;;;5.95;5.18;;;11.80;75.90;;;;;;5061271;28;20040;-74
2022/10/31 05:45:17;;;;;;;8.55;6.40;;;11.80;75.80;;;;;;5069856;28;20041;-74
2022/10/31 05:47:56;;;;;;;9.60;8.23;;;11.80;75.50;;;;;;5072770;28;20040;-73
2022/10/31 05:50:22;;;;;;;9.68;8.23;;;11.70;75.30;;;;;;5072295;28;20063;-72
2022/10/31 05:52:58;;;;;;;9.55;7.57;;;11.70;75.50;;;;;;5072714;28;20043;-73
2022/10/31 05:55:25;;;;;;;6.68;4.60;;;11.60;75.60;;;;;;5068664;28;20127;-73
2022/10/31 05:57:52;;;;;;;6.93;5.47;;;11.60;75.80;;;;;;5071949;28;20048;-77
2022/10/31 06:00:18;;;;;;;6.68;5.10;;;11.50;76.60;;;;;;5056562;28;20050;-73
2022/10/31 06:02:44;;;;;;;5.97;4.65;;;11.50;76.60;;;;;;5055705;28;20119;-73
2022/10/31 06:05:10;;;;;;;6.55;5.07;;;11.50;77.00;;;;;;5056311;28;20452;-73
2022/10/31 06:07:36;;;;;;;8.00;6.50;;;11.50;77.20;;;;;;5075015;28;20511;-76
2022/10/31 06:10:03;;;;;;;9.95;6.30;;;11.50;77.40;;;;;;5077446;28;20075;-76
2022/10/31 06:12:29;;;;;;;7.82;6.25;;;11.50;77.40;;;;;;5077087;28;20036;-82
2022/10/31 06:14:55;;;;;;;9.10;6.10;;;11.50;77.30;;;;;;5060574;28;20048;-82
2022/10/31 06:17:20;;;;;;;7.20;5.00;;;11.40;76.90;;;;;;5060770;28;20067;-82
2022/10/31 06:19:46;;;;;;;6.93;5.60;;;11.40;76.60;;;;;;5077165;28;20040;-82
2022/10/31 06:22:12;;;;;;;10.38;7.30;;;11.40;76.40;;;;;;5060454;28;20564;-82
2022/10/31 06:24:38;;;;;;;9.45;7.25;;;11.40;76.30;;;;;;5077031;28;20576;-82
2022/10/31 06:27:05;;;;;;;10.13;7.40;;;11.40;76.20;;;;;;5043764;28;20040;-82
2022/10/31 06:29:31;;;;;;;11.00;7.93;;;11.30;76.10;;;;;;5060047;28;20043;-77
2022/10/31 06:31:56;;;;;;;10.70;7.75;;;11.30;76.20;;;;;;5047166;28;20398;-82
2022/10/31 06:34:25;;;;;;;9.00;7.97;;;11.30;76.30;;;;;;5057416;28;20040;-82
2022/10/31 06:36:50;;;;;;;7.90;7.10;;;11.30;76.40;;;;;;5040171;28;20046;-82
2022/10/31 06:39:16;;;;;;;10.63;8.07;;;11.30;76.50;;;;;;5042742;28;20395;-77
2022/10/31 06:41:42;;;;;;;9.82;8.10;;;11.30;76.60;;;;;;5040260;28;20568;-83
2022/10/31 06:44:08;;;;;;;8.60;7.10;;;11.20;76.80;;;;;;5053249;28;20494;-83
2022/10/31 06:46:33;;;;;;;9.75;7.45;;;11.20;76.90;;;;;;5059898;28;20395;-82
2022/10/31 06:48:59;;;;;;;11.80;9.13;;;11.20;77.40;;;;;;5043529;28;20127;-77
2022/10/31 06:51:25;;;;;;;11.40;8.95;;;11.20;77.00;;;;;;5059575;28;20028;-77
2022/10/31 06:53:51;;;;;;;15.30;9.25;;;11.20;77.20;;;;;;5059707;28;20036;-77
2022/10/31 06:56:16;;;;;;;10.25;9.00;;;11.20;77.30;;;;;;5043215;28;20040;-82
2022/10/31 06:58:42;;;;;;;10.00;8.45;;;11.10;77.80;;;;;;5059988;28;20092;-82
2022/10/31 07:01:08;;;;;;;10.13;8.23;;;11.10;77.60;;;;;;5059664;28;20477;-82
2022/10/31 07:03:34;;;;;;;9.40;8.35;;;11.10;77.70;;;;;;5059902;28;20040;-82
2022/10/31 07:05:59;;;;;;;10.85;8.45;;;11.00;77.80;;;;;;5059305;28;20076;-77
2022/10/31 07:08:25;;;;;;;12.27;9.55;;;11.00;77.90;;;;;;5075858;28;20445;-77
2022/10/31 07:10:56;;;;;;;11.30;9.38;;;11.00;78.10;;;;;;5061807;28;20040;-76
2022/10/31 07:13:25;;;;;;;11.13;9.35;;;11.00;78.30;;;;;;5067441;28;20040;-76
2022/10/31 07:15:53;;;;;;;14.00;11.15;;;11.00;78.40;;;;;;5059896;28;20044;-75
2022/10/31 07:18:20;;;;;;;11.68;9.98;;;11.00;78.50;;;;;;5076035;28;20047;-75
2022/10/31 07:20:45;;;;;;;16.10;11.63;;;11.00;78.60;;;;;;5075781;28;20134;-76
2022/10/31 07:23:11;;;;;;;11.52;9.65;;;11.00;78.60;;;;;;5075018;28;20127;-75
2022/10/31 07:25:41;;;;;;;14.50;10.48;;;11.00;78.70;;;;;;5074999;28;20040;-74
2022/10/31 07:28:07;;;;;;;13.90;10.43;;;11.00;78.80;;;;;;5063405;28;20044;-75
2022/10/31 07:30:32;;;;;;;18.08;12.40;;;11.00;78.80;;;;;;5038868;28;20039;-71
2022/10/31 07:32:58;;;;;;;13.65;10.85;;;10.90;79.00;;;;;;5060759;28;20380;-71
2022/10/31 07:35:26;;;;;;;15.38;11.85;;;10.90;79.10;;;;;;5064418;28;20060;-72
2022/10/31 07:37:52;;;;;;;16.63;11.93;;;10.90;79.40;;;;;;5059336;28;20395;-73
2022/10/31 07:40:19;;;;;;;12.52;10.93;;;10.90;79.50;;;;;;5074769;28;20093;-72
2022/10/31 07:42:47;;;;;;;14.35;11.48;;;10.80;79.70;;;;;;5065686;28;20094;-72
2022/10/31 07:45:18;;;;;;;15.07;10.57;;;10.90;80.10;;;;;;5075023;28;20055;-72
2022/10/31 07:47:44;;;;;;;12.30;10.30;;;10.90;80.20;;;;;;5074802;28;20036;-73
2022/10/31 07:50:14;;;;;;;13.50;10.63;;;10.90;80.50;;;;;;5053200;28;20032;-72
2022/10/31 07:52:40;;;;;;;14.63;10.90;;;10.90;80.70;;;;;;5054351;28;20040;-72
2022/10/31 07:55:06;;;;;;;13.23;10.40;;;10.90;80.70;;;;;;5070839;28;20165;-72
2022/10/31 07:57:32;;;;;;;14.18;10.35;;;11.00;80.80;;;;;;5068454;28;20403;-76
2022/10/31 07:59:58;;;;;;;13.15;10.88;;;11.00;80.80;;;;;;5037617;28;20044;-72
2022/10/31 08:02:24;;;;;;;12.65;10.38;;;11.00;80.80;;;;;;5059542;28;20115;-75
2022/10/31 08:04:50;;;;;;;12.85;11.23;;;11.00;80.80;;;;;;5067117;28;20043;-75
2022/10/31 08:07:16;;;;;;;13.57;12.15;;;11.00;80.90;;;;;;5051543;28;20048;-72
2022/10/31 08:09:42;;;;;;;18.17;12.50;;;11.10;81.00;;;;;;5040837;28;20051;-72
2022/10/31 08:12:08;;;;;;;14.50;10.38;;;11.10;81.20;;;;;;5034322;28;20036;-72
2022/10/31 08:14:33;;;;;;;16.25;12.93;;;11.10;81.30;;;;;;5039818;28;20048;-73
2022/10/31 08:16:59;;;;;;;17.65;14.48;;;11.20;81.50;;;;;;5050914;28;20046;-72
2022/10/31 08:19:24;;;;;;;20.05;14.15;;;11.30;81.70;;;;;;5065094;28;20036;-76
2022/10/31 08:21:51;;;;;;;18.08;13.23;;;11.30;81.80;;;;;;5067871;28;20079;-76
2022/10/31 08:24:17;;;;;;;22.75;14.13;;;11.40;82.10;;;;;;5063324;28;20043;-76
2022/10/31 08:26:43;;;;;;;17.30;13.52;;;11.50;82.20;;;;;;5054267;28;20040;-76
2022/10/31 08:29:09;;;;;;;18.00;13.38;;;11.60;82.50;;;;;;5054624;28;20058;-75
2022/10/31 08:31:35;;;;;;;16.33;13.65;;;11.70;82.10;;;;;;5065032;28;20028;-75
2022/10/31 08:34:01;;;;;;;17.58;13.82;;;11.70;82.10;;;;;;5068669;28;20086;-76
2022/10/31 08:36:27;;;;;;;19.52;14.15;;;11.80;82.20;;;;;;5038070;28;20049;-73
2022/10/31 08:38:53;;;;;;;18.13;14.43;;;11.90;82.30;;;;;;5058704;28;20074;-72
2022/10/31 08:41:19;;;;;;;20.77;14.50;;;12.00;82.30;;;;;;5091291;28;20060;-73
2022/10/31 08:43:45;;;;;;;22.17;16.30;;;12.00;82.20;;;;;;5057610;28;20394;-73
2022/10/31 08:46:11;;;;;;;21.48;15.82;;;12.10;82.20;;;;;;5074526;28;20074;-73
2022/10/31 08:48:37;;;;;;;19.65;16.38;;;12.20;82.10;;;;;;5070904;28;20059;-72
2022/10/31 08:51:02;;;;;;;23.23;17.08;;;12.20;82.00;;;;;;5041521;28;20044;-75
2022/10/31 08:53:28;;;;;;;21.92;16.67;;;12.30;82.10;;;;;;5067262;28;20056;-75
2022/10/31 08:55:55;;;;;;;22.20;18.25;;;12.40;82.10;;;;;;5066647;28;20083;-72
2022/10/31 08:58:22;;;;;;;22.83;18.83;;;12.40;82.10;;;;;;5074164;28;20059;-72
2022/10/31 09:00:52;;;;;;;24.90;18.88;;;12.50;82.10;;;;;;5053731;28;20036;-73
2022/10/31 09:03:23;;;;;;;25.13;19.63;;;12.50;82.00;;;;;;5069390;28;20105;-72
2022/10/31 09:05:49;;;;;;;25.35;19.73;;;12.60;81.90;;;;;;5059264;28;20047;-72
2022/10/31 09:08:16;;;;;;;23.60;18.95;;;12.70;81.90;;;;;;5046408;28;20194;-75
2022/10/31 09:10:42;;;;;;;23.92;19.33;;;12.70;81.80;;;;;;5070668;28;20032;-75
2022/10/31 09:13:11;;;;;;;23.73;19.10;;;12.70;81.70;;;;;;5059967;28;20467;-73
2022/10/31 09:15:39;;;;;;;26.23;20.02;;;12.70;81.70;;;;;;5073854;28;20047;-72
2022/10/31 09:18:08;;;;;;;23.95;19.48;;;12.80;81.70;;;;;;5056724;28;20047;-75
2022/10/31 09:20:36;;;;;;;23.50;20.33;;;12.80;81.70;;;;;;5073533;28;20044;-75
2022/10/31 09:23:10;;;;;;;28.77;20.95;;;12.90;81.60;;;;;;5041659;28;20040;-73
2022/10/31 09:25:36;;;;;;;23.33;19.08;;;12.90;81.50;;;;;;5073359;28;20121;-72
2022/10/31 09:28:04;;;;;;;27.77;20.38;;;12.90;81.40;;;;;;5051642;28;20089;-75
2022/10/31 09:30:32;;;;;;;26.55;21.48;;;12.90;81.40;;;;;;5070156;28;20360;-75
2022/10/31 09:33:03;;;;;;;26.90;20.05;;;12.90;81.40;;;;;;5057335;28;20483;-72
2022/10/31 09:35:29;;;;;;;29.63;21.45;;;12.90;81.80;;;;;;5064626;28;20036;-72
2022/10/31 09:38:01;;;;;;;24.85;19.73;;;12.90;81.30;;;;;;5070015;28;20044;-72
2022/10/31 09:40:42;;;;;;;30.42;22.63;;;13.00;81.40;;;;;;5049651;28;20042;-72
2022/10/31 09:43:13;;;;;;;27.65;21.77;;;13.00;81.50;;;;;;5060679;28;20479;-72
2022/10/31 09:46:03;;;;;;;27.10;21.25;;;13.00;81.60;;;;;;5069056;28;20037;-72
2022/10/31 09:48:37;;;;;;;30.85;21.77;;;13.00;82.10;;;;;;5067337;28;20036;-72
2022/10/31 09:51:06;;;;;;;27.13;22.00;;;13.10;81.90;;;;;;5065710;28;20119;-72
2022/10/31 09:53:49;;;;;;;28.75;21.58;;;13.10;81.90;;;;;;5039752;28;20086;-72
2022/10/31 09:56:18;;;;;;;26.13;20.63;;;13.20;82.00;;;;;;5066083;28;20119;-72
2022/10/31 09:58:57;;;;;;;27.42;21.13;;;13.20;82.00;;;;;;5065303;28;20209;-73
2022/10/31 10:01:54;;;;;;;26.80;20.23;;;13.30;82.10;;;;;;5066498;28;20040;-72
2022/10/31 10:04:22;;;;;;;24.23;19.77;;;13.30;82.00;;;;;;5072465;28;20040;-72
2022/10/31 10:06:50;;;;;;;25.38;20.23;;;13.30;81.90;;;;;;5072584;28;20465;-73
2022/10/31 10:09:16;;;;;;;25.17;18.88;;;13.40;81.80;;;;;;5072108;28;20533;-72
2022/10/31 10:11:51;;;;;;;23.20;18.77;;;13.40;81.70;;;;;;5072302;28;20036;-73
2022/10/31 10:14:31;;;;;;;26.70;20.30;;;13.50;81.80;;;;;;5064945;28;20036;-73
2022/10/31 10:17:08;;;;;;;27.85;19.45;;;13.50;81.60;;;;;;5054085;28;20029;-73
2022/10/31 10:19:45;;;;;;;26.45;18.67;;;13.50;81.50;;;;;;5069788;28;20055;-72
2022/10/31 10:22:31;;;;;;;24.60;19.50;;;13.60;81.40;;;;;;5069089;28;20036;-72
2022/10/31 10:25:28;;;;;;;25.17;18.63;;;13.60;81.40;;;;;;5070477;28;20514;-73
2022/10/31 10:28:03;;;;;;;23.33;18.50;;;13.60;81.30;;;;;;5053595;28;20173;-73
2022/10/31 10:30:35;;;;;;;25.42;18.55;;;13.70;81.40;;;;;;5054597;28;20343;-72
2022/10/31 10:33:09;;;;;;;23.65;18.70;;;13.70;81.30;;;;;;5065789;28;20032;-72
2022/10/31 10:35:40;;;;;;;;;;;13.70;81.30;;;;;;5066458;28;20064;-73
2022/10/31 10:38:18;;;;;;;23.52;17.95;;;13.70;81.00;;;;;;5074578;28;19924;-73
2022/10/31 10:40:45;;;;;;;23.95;18.15;;;13.80;81.30;;;;;;5063978;28;20036;-72
2022/10/31 10:43:23;;;;;;;20.45;16.83;;;13.80;81.30;;;;;;5062497;28;20055;-77
2022/10/31 10:49:07;;;;;;;21.33;16.40;;;13.90;81.10;;;;;;5056226;28;20079;-74
2022/10/31 10:51:40;;;;;;;19.80;16.35;;;13.90;81.00;;;;;;5057462;28;20068;-76
2022/10/31 10:54:13;;;;;;;19.92;15.40;;;13.90;80.80;;;;;;5063137;28;20036;-80
2022/10/31 10:56:54;;;;;;;22.33;16.60;;;14.00;80.70;;;;;;5063791;28;20075;-81
2022/10/31 10:59:22;;;;;;;21.92;15.85;;;14.00;80.60;;;;;;5061998;28;20039;-81
2022/10/31 11:01:50;;;;;;;22.63;16.25;;;14.00;80.50;;;;;;5058399;28;20432;-81
2022/10/31 11:04:30;;;;;;;25.55;16.10;;;14.10;80.50;;;;;;5045946;28;20035;-81
2022/10/31 11:07:01;;;;;;;19.70;15.93;;;14.10;80.40;;;;;;5067895;28;20067;-81
2022/10/31 11:09:26;;;;;;;20.45;16.35;;;14.10;80.40;;;;;;5062838;28;20036;-81
2022/10/31 11:11:53;;;;;;;17.98;14.95;;;14.20;80.50;;;;;;5061491;28;20460;-81
2022/10/31 11:14:20;;;;;;;21.35;16.35;;;14.20;80.60;;;;;;5032250;28;20032;-81
2022/10/31 11:16:53;;;;;;;19.27;14.77;;;14.30;80.70;;;;;;5065884;28;20063;-81
2022/10/31 11:19:28;;;;;;;21.33;16.05;;;14.30;80.70;;;;;;5068161;28;20434;-76
2022/10/31 11:22:05;;;;;;;20.67;14.70;;;14.30;80.70;;;;;;5064965;28;20024;-76
2022/10/31 11:24:36;;;;;;;19.42;14.43;;;14.40;80.70;;;;;;5067537;28;20502;-75
2022/10/31 11:27:22;;;;;;;19.67;15.13;;;14.40;80.80;;;;;;5069195;28;20036;-75
2022/10/31 11:29:49;;;;;;;20.45;15.30;;;14.50;80.60;;;;;;5065976;28;20399;-76
2022/10/31 11:32:24;;;;;;;19.95;14.48;;;14.50;80.70;;;;;;5068238;28;20540;-77
2022/10/31 11:35:02;;;;;;;20.00;14.65;;;14.60;80.60;;;;;;5039645;28;20036;-76
2022/10/31 11:37:34;;;;;;;18.73;15.43;;;14.70;80.50;;;;;;5068959;28;20047;-75
2022/10/31 11:40:05;;;;;;;19.98;14.90;;;14.70;80.60;;;;;;5061542;28;20045;-76
2022/10/31 11:42:42;;;;;;;17.77;14.70;;;14.70;80.30;;;;;;5036193;28;20384;-75
2022/10/31 11:45:14;;;;;;;19.98;14.15;;;14.80;80.20;;;;;;5061932;28;20043;-76
2022/10/31 11:47:45;;;;;;;20.75;14.73;;;14.80;80.10;;;;;;5037223;28;20482;-82
2022/10/31 11:50:18;;;;;;;19.52;14.77;;;14.90;80.20;;;;;;5048377;28;20385;-82
2022/10/31 11:52:44;;;;;;;17.17;13.95;;;14.90;80.10;;;;;;5045815;28;20100;-82
2022/10/31 11:55:12;;;;;;;18.95;13.75;;;15.00;80.10;;;;;;5033592;28;20135;-82
2022/10/31 11:57:51;;;;;;;17.33;11.52;;;15.10;80.20;;;;;;5060880;28;20040;-81
2022/10/31 12:00:33;;;;;;;14.15;10.73;;;15.10;79.90;;;;;;5075025;28;20101;-81
2022/10/31 12:03:20;;;;;;;17.88;12.55;;;15.20;79.50;;;;;;5074864;28;20044;-82
2022/10/31 12:06:03;;;;;;;18.20;12.57;;;15.20;79.30;;;;;;5058175;28;20051;-82
2022/10/31 12:08:31;;;;;;;16.40;11.27;;;15.30;79.20;;;;;;5054909;28;20491;-82
2022/10/31 12:11:27;;;;;;;18.58;11.35;;;15.30;79.20;;;;;;5054899;28;20111;-81
2022/10/31 12:14:05;;;;;;;18.10;11.75;;;15.40;79.40;;;;;;5071833;28;20123;-82
2022/10/31 12:16:44;;;;;;;14.80;11.48;;;15.40;79.00;;;;;;5071899;28;20124;-81
2022/10/31 12:19:23;;;;;;;16.17;10.10;;;15.50;78.90;;;;;;5056208;28;20053;-82
2022/10/31 12:21:49;;;;;;;17.13;10.13;;;15.60;78.10;;;;;;5037226;28;20233;-75
2022/10/31 12:24:26;;;;;;;12.25;9.15;;;15.60;78.10;;;;;;5068790;28;20044;-75
2022/10/31 12:27:06;;;;;;;15.05;8.90;;;15.70;77.70;;;;;;5074837;28;20127;-75
2022/10/31 12:30:01;;;;;;;13.43;8.70;;;15.70;77.10;;;;;;5074604;28;21565;-76
2022/10/31 12:33:04;;;;;;;15.95;8.73;;;15.80;76.50;;;;;;5075196;28;20097;-75
2022/10/31 12:36:05;;;;;;;10.88;7.45;;;15.80;76.20;;;;;;5055195;28;20045;-75
2022/10/31 12:38:47;;;;;;;13.38;8.55;;;15.90;75.90;;;;;;5038747;28;20075;-75
2022/10/31 12:41:45;;;;;;;11.63;7.32;;;15.90;75.70;;;;;;5038940;28;20369;-75
2022/10/31 12:44:13;;;;;;;11.20;8.07;;;16.00;75.40;;;;;;5050081;28;20047;-83
2022/10/31 12:46:54;;;;;;;12.45;7.85;;;16.00;75.30;;;;;;5053530;28;20062;-83
2022/10/31 12:49:54;;;;;;;14.02;9.73;;;16.00;74.90;;;;;;5062492;28;20041;-83
2022/10/31 12:52:34;;;;;;;12.63;7.95;;;16.10;74.70;;;;;;5068044;28;20118;-83
2022/10/31 12:55:08;;;;;;;10.13;7.82;;;16.10;74.80;;;;;;5042352;28;20048;-83
2022/10/31 12:57:38;;;;;;;12.03;8.30;;;16.10;74.90;;;;;;5050509;28;20071;-77